Time;durP1;ratioP1;P1;durP2;ratioP2;P2;SDS_P1;SDS_P2;PMS_P1;PMS_P2;Temp;Humidity;BMP_temperature;BMP_pressure;BME280_temperature;BME280_humidity;BME280_pressure;Samples;Min_cycle;Max_cycle;Signal;HPM_P1;HPM_P2
2021/09/01 00:00:39;;;;;;;6.60;3.97;;;;;;;14.58;100.00;99682.66;6263435;28;20040;-89
2021/09/01 00:03:40;;;;;;;6.05;3.75;;;;;;;14.58;100.00;99676.56;6263338;28;20467;-90
2021/09/01 00:06:41;;;;;;;8.30;4.00;;;;;;;14.55;100.00;99672.38;6262768;28;20041;-90
2021/09/01 00:09:42;;;;;;;6.03;3.57;;;;;;;14.57;100.00;99677.53;6279101;28;20048;-90
2021/09/01 00:12:43;;;;;;;5.20;3.15;;;;;;;14.51;100.00;99677.03;6278657;28;20044;-87
2021/09/01 00:15:46;;;;;;;4.97;2.50;;;;;;;14.56;100.00;99679.34;6261873;28;20052;-81
2021/09/01 00:18:47;;;;;;;3.67;2.50;;;;;;;14.54;100.00;99681.22;6245572;28;20047;-88
2021/09/01 00:21:48;;;;;;;3.08;2.45;;;;;;;14.55;100.00;99685.50;6261271;28;20044;-87
2021/09/01 00:24:48;;;;;;;4.13;2.28;;;;;;;14.46;100.00;99671.34;6277726;28;20041;-86
2021/09/01 00:27:49;;;;;;;3.72;2.50;;;;;;;14.44;100.00;99681.16;6260833;28;20473;-87
2021/09/01 00:30:50;;;;;;;3.08;2.40;;;;;;;14.51;100.00;99689.34;6260946;28;20037;-86
2021/09/01 00:33:51;;;;;;;3.92;2.75;;;;;;;14.49;100.00;99683.38;6277464;28;20448;-86
2021/09/01 00:36:52;;;;;;;5.03;2.90;;;;;;;14.47;100.00;99686.13;6260848;28;20045;-85
2021/09/01 00:39:52;;;;;;;9.98;2.92;;;;;;;14.54;100.00;99693.50;6244398;28;20082;-85
2021/09/01 00:42:54;;;;;;;4.38;2.80;;;;;;;14.42;100.00;99698.81;6277352;28;20120;-86
2021/09/01 00:45:56;;;;;;;4.65;2.88;;;;;;;14.45;100.00;99693.28;6277329;28;20514;-86
2021/09/01 00:48:56;;;;;;;5.73;2.87;;;;;;;14.39;100.00;99699.09;6295129;28;20041;-86
2021/09/01 00:51:59;;;;;;;3.10;2.67;;;;;;;14.28;100.00;99689.44;6244294;28;20281;-85
2021/09/01 00:55:01;;;;;;;;;;;;;;;14.21;100.00;99693.53;6277816;28;20086;-86
2021/09/01 00:58:02;;;;;;;;;;;;;;;14.21;100.00;99693.53;6295500;28;19937;-85
2021/09/01 01:01:16;;;;;;;5.15;2.90;;;;;;;14.27;100.00;99697.47;6279873;28;20014;-86
2021/09/01 01:04:17;;;;;;;4.43;3.00;;;;;;;14.24;100.00;99701.16;6282144;28;20475;-86
2021/09/01 01:07:18;;;;;;;2.97;2.65;;;;;;;14.30;100.00;99689.34;6282305;28;20098;-86
2021/09/01 01:10:19;;;;;;;3.03;2.70;;;;;;;14.30;100.00;99705.91;6281917;28;20045;-85
2021/09/01 01:13:20;;;;;;;5.80;3.00;;;;;;;14.34;100.00;99698.63;6248816;28;20171;-85
2021/09/01 01:16:23;;;;;;;3.60;3.08;;;;;;;14.35;100.00;99695.03;6248876;28;20040;-85
2021/09/01 01:19:24;;;;;;;5.93;2.85;;;;;;;14.33;100.00;99699.59;6282043;28;20037;-84
2021/09/01 01:22:26;;;;;;;5.72;2.55;;;;;;;14.31;100.00;99704.13;6281543;28;20044;-85
2021/09/01 01:25:37;;;;;;;3.45;2.78;;;;;;;14.24;100.00;99710.81;6248368;28;20052;-84
2021/09/01 01:28:37;;;;;;;2.97;2.60;;;;;;;14.24;100.00;99709.03;6297984;28;20056;-85
2021/09/01 01:31:39;;;;;;;5.13;3.00;;;;;;;14.24;100.00;99703.78;6264883;28;20406;-84
2021/09/01 01:34:40;;;;;;;3.88;2.97;;;;;;;14.24;100.00;99709.03;6281285;28;20498;-86
2021/09/01 01:37:41;;;;;;;4.95;2.78;;;;;;;14.25;100.00;99708.09;6281146;28;20044;-85
2021/09/01 01:40:42;;;;;;;5.32;2.80;;;;;;;14.22;100.00;99712.75;6248051;28;20079;-85
2021/09/01 01:43:48;;;;;;;4.75;2.97;;;;;;;14.32;100.00;99708.41;6264608;28;20057;-85
2021/09/01 01:46:49;;;;;;;3.90;3.13;;;;;;;14.17;100.00;99712.31;6281081;28;20045;-85
2021/09/01 01:49:49;;;;;;;3.50;2.75;;;;;;;14.21;100.00;99719.78;6264530;28;20456;-83
2021/09/01 01:52:50;;;;;;;4.18;3.00;;;;;;;14.19;100.00;99716.47;6247947;28;20123;-86
2021/09/01 01:55:51;;;;;;;3.22;2.65;;;;;;;14.21;100.00;99719.78;6280807;28;20052;-85
2021/09/01 01:58:52;;;;;;;5.68;2.92;;;;;;;14.20;100.00;99718.09;6280814;28;20068;-85
2021/09/01 02:01:53;;;;;;;4.65;2.90;;;;;;;14.20;100.00;99722.53;6280698;28;20044;-84
2021/09/01 02:04:54;;;;;;;3.10;2.58;;;;;;;14.17;100.00;99722.78;6280543;28;20044;-85
2021/09/01 02:07:54;;;;;;;3.78;2.67;;;;;;;14.15;100.00;99719.47;6280725;28;20047;-85
2021/09/01 02:10:55;;;;;;;5.55;2.75;;;;;;;14.16;100.00;99729.81;6280042;28;20094;-85
2021/09/01 02:13:56;;;;;;;4.05;2.90;;;;;;;14.16;100.00;99723.75;6263784;28;20041;-84
2021/09/01 02:16:57;;;;;;;5.57;2.70;;;;;;;14.14;100.00;99726.47;6247428;28;20041;-85
2021/09/01 02:19:58;;;;;;;5.03;2.42;;;;;;;14.15;100.00;99730.78;6286447;28;20123;-79
2021/09/01 02:22:59;;;;;;;3.00;2.70;;;;;;;14.14;100.00;99723.03;6288632;28;20452;-79
2021/09/01 02:25:59;;;;;;;3.33;2.63;;;;;;;14.17;100.00;99717.53;6305042;28;20293;-85
2021/09/01 02:29:01;;;;;;;3.88;2.58;;;;;;;14.21;100.00;99727.66;6289950;28;20044;-85
2021/09/01 02:32:02;;;;;;;5.18;2.97;;;;;;;14.20;100.00;99725.16;6263537;28;20040;-86
2021/09/01 02:35:04;;;;;;;3.05;2.65;;;;;;;14.18;100.00;99721.81;6247161;28;20040;-78
2021/09/01 02:38:05;;;;;;;5.43;2.30;;;;;;;14.10;100.00;99714.56;6246629;28;20101;-86
2021/09/01 02:41:06;;;;;;;3.45;2.35;;;;;;;14.21;100.00;99726.84;6279924;28;20135;-85
2021/09/01 02:44:07;;;;;;;3.15;2.60;;;;;;;14.14;100.00;99736.97;6263302;28;20056;-86
2021/09/01 02:47:08;;;;;;;2.90;2.60;;;;;;;14.18;100.00;99729.69;6279573;28;20481;-86
2021/09/01 02:50:09;;;;;;;2.80;2.43;;;;;;;14.19;100.00;99734.00;6296161;28;20041;-85
2021/09/01 02:53:10;;;;;;;3.25;2.65;;;;;;;14.18;100.00;99732.31;6279570;28;20041;-86
2021/09/01 02:56:11;;;;;;;4.13;2.60;;;;;;;14.17;100.00;99738.53;6246489;28;20052;-86
2021/09/01 02:59:12;;;;;;;3.20;2.63;;;;;;;14.17;100.00;99733.28;6260636;28;20036;-86
2021/09/01 03:02:13;;;;;;;5.28;2.40;;;;;;;14.18;100.00;99738.38;6299060;28;20039;-85
2021/09/01 03:05:14;;;;;;;3.42;2.70;;;;;;;14.08;100.00;99737.47;6262919;28;20119;-85
2021/09/01 03:08:15;;;;;;;3.75;2.50;;;;;;;14.03;100.00;99756.22;6262564;28;20043;-85
2021/09/01 03:11:16;;;;;;;3.40;2.60;;;;;;;14.02;100.00;99753.69;6246139;28;20045;-85
2021/09/01 03:14:17;;;;;;;3.92;2.47;;;;;;;13.99;100.00;99754.78;6278984;28;20052;-85
2021/09/01 03:17:18;;;;;;;4.28;2.40;;;;;;;13.95;100.00;99763.03;6278921;28;20041;-87
2021/09/01 03:20:19;;;;;;;4.95;2.60;;;;;;;13.89;100.00;99756.47;6262323;28;20044;-88
2021/09/01 03:23:20;;;;;;;4.72;2.55;;;;;;;13.98;100.00;99761.00;6244853;28;20451;-87
2021/09/01 03:26:20;;;;;;;3.13;2.55;;;;;;;13.96;100.00;99767.31;6262141;28;20036;-88
2021/09/01 03:29:21;;;;;;;3.88;2.53;;;;;;;13.97;100.00;99769.00;6262048;28;20036;-88
2021/09/01 03:32:22;;;;;;;3.88;2.60;;;;;;;13.95;100.00;99776.16;6278636;28;20087;-88
2021/09/01 03:35:23;;;;;;;6.28;2.55;;;;;;;13.89;100.00;99773.03;6262047;28;20033;-88
2021/09/01 03:38:24;;;;;;;6.45;2.60;;;;;;;13.78;100.00;99764.38;6261599;28;20064;-88
2021/09/01 03:41:25;;;;;;;2.38;2.13;;;;;;;13.85;100.00;99778.66;6278527;28;20067;-88
2021/09/01 03:44:25;;;;;;;3.58;2.40;;;;;;;13.97;100.00;99784.72;6298564;28;20439;-87
2021/09/01 03:47:26;;;;;;;6.45;2.50;;;;;;;13.96;100.00;99788.28;6321214;28;20039;-87
2021/09/01 03:50:27;;;;;;;5.68;2.30;;;;;;;13.95;100.00;99791.88;6286575;28;20043;-88
2021/09/01 03:53:28;;;;;;;4.43;2.58;;;;;;;13.97;100.00;99793.41;6286307;28;20048;-88
2021/09/01 03:56:29;;;;;;;4.90;2.50;;;;;;;13.93;100.00;99791.16;6286504;28;20491;-88
2021/09/01 03:59:30;;;;;;;6.30;2.20;;;;;;;14.00;100.00;99792.34;6302909;28;20119;-88
2021/09/01 04:02:31;;;;;;;2.58;2.22;;;;;;;14.05;100.00;99800.69;6268976;28;20044;-88
2021/09/01 04:05:33;;;;;;;2.70;2.30;;;;;;;14.05;100.00;99804.13;6269502;28;20071;-88
2021/09/01 04:08:34;;;;;;;4.68;2.20;;;;;;;14.00;100.00;99806.31;6320676;28;20044;-88
2021/09/01 04:11:35;;;;;;;2.53;2.08;;;;;;;13.99;100.00;99817.75;6303085;28;20036;-89
2021/09/01 04:14:35;;;;;;;6.22;2.45;;;;;;;13.90;100.00;99815.84;6302766;28;20042;-80
2021/09/01 04:17:36;;;;;;;3.92;2.20;;;;;;;13.94;100.00;99825.16;6282892;28;20052;-80
2021/09/01 04:20:37;;;;;;;2.88;2.15;;;;;;;14.03;100.00;99827.03;6261053;28;20087;-80
2021/09/01 04:23:38;;;;;;;2.80;2.00;;;;;;;14.04;100.00;99825.22;6277338;28;20036;-80
2021/09/01 04:26:39;;;;;;;2.80;2.40;;;;;;;14.05;100.00;99830.38;6260861;28;20477;-80
2021/09/01 04:29:39;;;;;;;2.97;2.35;;;;;;;14.08;100.00;99835.38;6277421;28;20098;-80
2021/09/01 04:32:40;;;;;;;5.57;2.53;;;;;;;14.13;100.00;99839.44;6293966;28;20047;-80
2021/09/01 04:35:41;;;;;;;3.28;2.25;;;;;;;14.16;100.00;99837.38;6286083;28;20364;-80
2021/09/01 04:38:42;;;;;;;4.97;2.40;;;;;;;14.17;100.00;99839.06;6293740;28;20494;-80
2021/09/01 04:41:43;;;;;;;5.35;2.13;;;;;;;14.23;100.00;99840.38;6260650;28;20029;-80
2021/09/01 04:44:44;;;;;;;6.38;2.30;;;;;;;14.21;100.00;99847.53;6277289;28;20047;-80
2021/09/01 04:47:44;;;;;;;4.82;2.20;;;;;;;14.29;100.00;99845.13;6283196;28;20044;-81
2021/09/01 04:50:45;;;;;;;2.50;2.30;;;;;;;14.33;100.00;99857.06;6301962;28;20119;-80
2021/09/01 04:53:46;;;;;;;2.03;1.83;;;;;;;14.38;100.00;99854.88;6285699;28;20097;-81
2021/09/01 04:56:47;;;;;;;2.95;2.30;;;;;;;14.39;100.00;99863.59;6285381;28;20047;-81
2021/09/01 04:59:48;;;;;;;3.90;2.47;;;;;;;14.33;100.00;99857.06;6260491;28;20045;-80
2021/09/01 05:02:48;;;;;;;2.40;1.98;;;;;;;14.40;100.00;99855.59;6244253;28;20506;-81
2021/09/01 05:05:49;;;;;;;3.38;2.30;;;;;;;14.38;100.00;99859.31;6260302;28;20040;-80
2021/09/01 05:08:50;;;;;;;4.93;2.70;;;;;;;14.40;100.00;99860.84;6260453;28;20492;-81
2021/09/01 05:11:51;;;;;;;3.72;2.10;;;;;;;14.41;100.00;99859.91;6264179;28;20376;-80
2021/09/01 05:14:52;;;;;;;3.05;1.80;;;;;;;14.41;100.00;99861.66;6280693;28;20068;-81
2021/09/01 05:17:52;;;;;;;2.63;1.92;;;;;;;14.49;100.00;99865.34;6319842;28;20095;-81
2021/09/01 05:20:56;;;;;;;3.10;2.20;;;;;;;14.55;100.00;99864.03;6301345;28;20051;-81
2021/09/01 05:23:57;;;;;;;3.20;2.03;;;;;;;14.62;100.00;99867.00;6301702;28;20044;-81
2021/09/01 05:27:11;;;;;;;3.95;2.20;;;;;;;14.75;100.00;99859.00;6284913;28;20045;-81
2021/09/01 05:30:15;;;;;;;6.03;2.20;;;;;;;14.70;100.00;99865.47;6301496;28;20056;-81
2021/09/01 05:33:19;;;;;;;5.07;2.05;;;;;;;14.67;100.00;99876.19;6301527;28;20058;-81
2021/09/01 05:36:21;;;;;;;4.25;2.22;;;;;;;14.63;100.00;99882.66;6299040;28;20402;-81
2021/09/01 05:39:23;;;;;;;2.20;2.00;;;;;;;14.76;100.00;99881.66;6273879;28;20045;-88
2021/09/01 05:42:26;;;;;;;4.18;2.13;;;;;;;14.73;100.00;99887.19;6276732;28;20281;-81
2021/09/01 05:45:29;;;;;;;5.38;2.58;;;;;;;14.75;100.00;99878.22;6293020;28;20053;-89
2021/09/01 05:48:30;;;;;;;2.15;1.95;;;;;;;14.75;100.00;99878.22;6295026;28;20120;-81
2021/09/01 05:51:31;;;;;;;4.20;2.28;;;;;;;14.80;100.00;99880.44;6272592;28;20043;-82
2021/09/01 05:54:33;;;;;;;2.70;2.25;;;;;;;14.88;100.00;99878.03;6293742;28;20047;-89
2021/09/01 05:57:36;;;;;;;4.45;2.15;;;;;;;14.87;100.00;99881.63;6297342;28;20044;-89
2021/09/01 06:00:39;;;;;;;4.10;2.17;;;;;;;14.87;100.00;99886.88;6297668;28;20101;-81
2021/09/01 06:03:44;;;;;;;4.05;1.98;;;;;;;14.82;100.00;99889.03;6297190;28;20040;-81
2021/09/01 06:06:49;;;;;;;2.75;2.10;;;;;;;14.79;100.00;99892.75;6297150;28;20471;-81
2021/09/01 06:09:50;;;;;;;6.30;2.35;;;;;;;14.95;100.00;99889.72;6297123;28;20045;-82
2021/09/01 06:12:54;;;;;;;4.05;2.10;;;;;;;15.17;100.00;99886.13;6297074;28;20045;-90
2021/09/01 06:15:56;;;;;;;2.60;2.20;;;;;;;15.37;100.00;99894.19;6282367;28;20041;-81
2021/09/01 06:18:57;;;;;;;13.98;4.15;;;;;;;15.46;100.00;99899.50;6298103;28;20451;-81
2021/09/01 06:21:58;;;;;;;2.92;1.90;;;;;;;15.57;100.00;99893.34;6280413;28;20490;-81
2021/09/01 06:25:00;;;;;;;2.53;1.75;;;;;;;15.58;100.00;99896.78;6296942;28;20051;-80
2021/09/01 06:28:02;;;;;;;3.40;2.00;;;;;;;15.64;100.00;99902.34;6297978;28;20048;-81
2021/09/01 06:31:04;;;;;;;3.55;1.60;;;;;;;15.68;100.00;99900.31;6296535;28;20036;-81
2021/09/01 06:34:05;;;;;;;1.87;1.53;;;;;;;15.55;100.00;99904.97;6294867;28;20082;-87
2021/09/01 06:37:06;;;;;;;6.10;1.77;;;;;;;15.64;100.00;99906.78;6302123;28;20036;-88
2021/09/01 06:40:09;;;;;;;2.30;1.80;;;;;;;15.59;100.00;99914.25;6286278;28;20053;-89
2021/09/01 06:43:12;;;;;;;2.05;1.75;;;;;;;15.52;100.00;99924.44;6259751;28;20048;-90
2021/09/01 06:46:13;;;;;;;5.53;1.70;;;;;;;15.39;100.00;99926.44;6296486;28;20078;-89
2021/09/01 06:49:14;;;;;;;5.18;1.98;;;;;;;15.43;100.00;99928.66;6279701;28;20041;-81
2021/09/01 06:52:15;;;;;;;2.67;1.50;;;;;;;15.48;100.00;99917.75;6312909;28;20082;-81
2021/09/01 06:55:16;;;;;;;1.50;1.40;;;;;;;15.67;100.00;99933.69;6296176;28;20090;-90
2021/09/01 06:58:18;;;;;;;2.10;1.38;;;;;;;15.74;100.00;99934.03;6279470;28;20056;-80
2021/09/01 07:01:19;;;;;;;1.77;1.58;;;;;;;15.73;100.00;99947.28;6279722;28;20061;-89
2021/09/01 07:04:20;;;;;;;5.10;1.40;;;;;;;15.82;100.00;99949.16;6296052;28;20053;-88
2021/09/01 07:07:21;;;;;;;3.40;1.50;;;;;;;15.93;100.00;99950.88;6274152;28;20045;-81
2021/09/01 07:10:22;;;;;;;5.97;2.75;;;;;;;16.08;100.00;99947.78;6270933;28;20037;-80
2021/09/01 07:13:22;;;;;;;3.80;1.88;;;;;;;16.12;100.00;99953.59;6254337;28;20041;-80
2021/09/01 07:16:24;;;;;;;3.47;1.48;;;;;;;16.03;100.00;99963.09;6237930;28;20131;-80
2021/09/01 07:19:25;;;;;;;;;;;;;;;16.04;100.00;99959.53;6238547;28;20041;-80
2021/09/01 07:22:26;;;;;;;3.80;1.60;;;;;;;16.25;100.00;99956.84;6270522;28;19928;-80
2021/09/01 07:25:27;;;;;;;1.75;1.27;;;;;;;16.40;100.00;99957.31;6270486;28;20087;-88
2021/09/01 07:28:28;;;;;;;2.08;1.50;;;;;;;16.69;100.00;99970.56;6270300;28;20048;-85
2021/09/01 07:31:31;;;;;;;6.65;1.83;;;;;;;16.84;100.00;99976.34;6286922;28;20037;-78
2021/09/01 07:34:31;;;;;;;2.20;1.27;;;;;;;16.85;100.00;99970.09;6253955;28;20090;-78
2021/09/01 07:37:32;;;;;;;1.90;1.45;;;;;;;16.97;100.00;99975.25;6270256;28;20048;-86
2021/09/01 07:40:33;;;;;;;3.70;1.38;;;;;;;16.78;100.00;99981.25;6237305;28;20056;-78
2021/09/01 07:43:34;;;;;;;1.30;1.17;;;;;;;16.66;100.00;99977.91;6270191;28;20128;-78
2021/09/01 07:46:34;;;;;;;2.20;1.30;;;;;;;16.87;100.00;99970.78;6253449;28;20115;-81
2021/09/01 07:49:35;;;;;;;2.63;1.30;;;;;;;17.36;100.00;99986.66;6253557;28;20041;-77
2021/09/01 07:52:36;;;;;;;1.23;1.13;;;;;;;17.48;100.00;99985.53;6269857;28;20299;-76
2021/09/01 07:55:37;;;;;;;1.80;1.40;;;;;;;17.35;100.00;100000.78;6254471;28;20041;-77
2021/09/01 07:58:38;;;;;;;1.27;1.17;;;;;;;17.09;100.00;100000.47;6294445;28;20040;-86
2021/09/01 08:01:39;;;;;;;3.15;1.40;;;;;;;16.96;100.00;100000.75;6294703;28;20056;-77
2021/09/01 08:04:39;;;;;;;5.75;1.48;;;;;;;17.19;100.00;100003.97;6294440;28;20040;-86
2021/09/01 08:07:40;;;;;;;1.58;1.23;;;;;;;17.42;100.00;100001.06;6294535;28;20462;-86
2021/09/01 08:10:41;;;;;;;2.00;1.33;;;;;;;17.63;100.00;100000.94;6293997;28;20075;-86
2021/09/01 08:13:42;;;;;;;3.88;1.30;;;;;;;17.76;100.00;100008.56;6294579;28;20033;-86
2021/09/01 08:16:43;;;;;;;2.15;1.30;;;;;;;17.74;100.00;100008.69;6286958;28;20250;-78
2021/09/01 08:19:45;;;;;;;2.08;1.15;;;;;;;17.79;100.00;100003.84;6250947;28;20037;-78
2021/09/01 08:22:45;;;;;;;;;;;;;;;17.82;100.00;100005.34;6295366;28;20068;-78
2021/09/01 08:25:46;;;;;;;2.58;2.00;;;;;;;18.01;100.00;100005.31;6269169;28;20393;-78
2021/09/01 08:28:48;;;;;;;1.73;1.08;;;;;;;18.05;100.00;100017.25;6252846;28;20041;-78
2021/09/01 08:31:49;;;;;;;2.00;1.05;;;;;;;17.99;100.00;100023.13;6270645;28;20037;-87
2021/09/01 08:34:51;;;;;;;7.23;1.10;;;;;;;18.06;100.00;100020.75;6286378;28;20522;-88
2021/09/01 08:37:52;;;;;;;1.50;1.08;;;;;;;18.02;100.00;100032.59;6274851;28;20407;-79
2021/09/01 08:40:53;;;;;;;1.10;0.75;;;;;;;17.89;100.00;100025.78;6293766;28;20098;-79
2021/09/01 08:43:59;;;;;;;3.30;1.00;;;;;;;18.10;100.00;100030.88;6277385;28;20036;-78
2021/09/01 08:47:02;;;;;;;4.30;1.20;;;;;;;18.30;100.00;100034.31;6294121;28;20170;-77
2021/09/01 08:50:06;;;;;;;4.32;0.90;;;;;;;18.24;98.99;100032.25;6293305;28;20060;-79
2021/09/01 08:53:07;;;;;;;2.08;0.90;;;;;;;18.20;100.00;100033.50;6294071;28;20402;-79
2021/09/01 08:56:07;;;;;;;2.87;0.90;;;;;;;18.21;100.00;100042.25;6293872;28;20040;-79
2021/09/01 08:59:09;;;;;;;1.67;0.77;;;;;;;18.29;100.00;100037.09;6294303;28;20044;-87
2021/09/01 09:02:11;;;;;;;0.80;0.77;;;;;;;18.34;100.00;100037.47;6278172;28;20037;-80
2021/09/01 09:05:12;;;;;;;3.63;0.82;;;;;;;18.40;99.27;100042.19;6276931;28;20045;-80
2021/09/01 09:08:14;;;;;;;1.83;0.80;;;;;;;18.56;98.30;100044.22;6310722;28;20082;-87
2021/09/01 09:11:16;;;;;;;1.48;0.65;;;;;;;18.44;100.00;100048.03;6277617;28;20558;-87
2021/09/01 09:14:39;;;;;;;2.38;0.73;;;;;;;18.32;96.61;100045.56;6294590;28;20060;-89
2021/09/01 09:17:40;;;;;;;2.33;1.40;;;;;;;18.40;100.00;100042.19;6294428;28;20439;-81
2021/09/01 09:20:43;;;;;;;1.02;0.88;;;;;;;18.62;99.76;100043.63;6287515;28;20044;-79
2021/09/01 09:23:46;;;;;;;4.50;0.90;;;;;;;18.59;100.00;100049.19;6294130;28;20112;-81
2021/09/01 09:26:47;;;;;;;1.33;0.50;;;;;;;18.26;90.91;100051.44;6274041;28;20045;-86
2021/09/01 09:29:48;;;;;;;1.90;0.53;;;;;;;18.24;91.51;100037.53;6258064;28;20408;-89
2021/09/01 09:32:56;;;;;;;1.15;0.60;;;;;;;18.65;91.76;100034.56;6241254;28;20041;-79
2021/09/01 09:36:04;;;;;;;1.75;0.60;;;;;;;19.22;82.97;100056.41;6273329;28;20041;-80
2021/09/01 09:39:06;;;;;;;0.60;0.60;;;;;;;19.50;92.75;100051.09;6293689;28;20058;-88
2021/09/01 09:42:07;;;;;;;0.70;0.60;;;;;;;19.79;84.10;100050.88;6273885;28;20040;-85
2021/09/01 09:45:22;;;;;;;0.60;0.50;;;;;;;19.55;88.04;100053.28;6290316;28;20036;-82
2021/09/01 09:48:31;;;;;;;1.23;0.80;;;;;;;19.43;85.16;100050.84;6306639;28;20037;-86
2021/09/01 09:51:41;;;;;;;2.25;0.75;;;;;;;19.56;85.13;100057.56;6290380;28;20067;-82
2021/09/01 09:54:43;;;;;;;1.77;0.77;;;;;;;19.14;81.58;100056.34;6300400;28;20043;-80
2021/09/01 09:58:03;;;;;;;3.33;0.70;;;;;;;19.47;85.17;100060.13;6289035;28;20447;-82
2021/09/01 10:01:05;;;;;;;1.02;0.70;;;;;;;19.05;87.02;100062.53;6273218;28;20044;-78
2021/09/01 10:04:06;;;;;;;2.70;0.90;;;;;;;19.37;86.51;100067.31;6305209;28;20048;-80
2021/09/01 10:07:08;;;;;;;3.57;0.90;;;;;;;19.58;85.81;100063.53;6321852;28;20710;-81
2021/09/01 10:10:13;;;;;;;3.00;0.70;;;;;;;19.55;87.05;100069.97;6305171;28;20040;-84
2021/09/01 10:13:15;;;;;;;1.48;0.80;;;;;;;19.35;88.43;100063.16;6305681;28;20042;-85
2021/09/01 10:16:30;;;;;;;0.88;0.70;;;;;;;19.35;91.00;100066.63;6272245;28;20044;-81
2021/09/01 10:19:34;;;;;;;0.85;0.60;;;;;;;19.21;84.62;100061.84;6305154;28;20456;-86
2021/09/01 10:22:35;;;;;;;1.00;0.90;;;;;;;19.29;88.94;100061.94;6305621;28;20040;-84
2021/09/01 10:25:51;;;;;;;2.03;1.00;;;;;;;19.50;87.14;100065.13;6305145;28;20083;-86
2021/09/01 10:28:54;;;;;;;0.60;0.60;;;;;;;19.39;81.99;100073.28;6289063;28;20044;-80
2021/09/01 10:32:21;;;;;;;0.93;0.77;;;;;;;19.78;83.01;100072.19;6288523;28;20063;-88
2021/09/01 10:35:25;;;;;;;0.60;0.50;;;;;;;19.87;76.89;100068.59;6304985;28;20044;-87
2021/09/01 10:38:31;;;;;;;3.30;0.50;;;;;;;20.41;75.49;100064.03;6304755;28;20048;-81
2021/09/01 10:41:33;;;;;;;1.55;0.82;;;;;;;20.10;78.00;100066.31;6304645;28;20040;-88
2021/09/01 10:44:34;;;;;;;2.55;0.90;;;;;;;20.43;74.03;100066.53;6288241;28;20047;-87
2021/09/01 10:48:09;;;;;;;1.17;0.70;;;;;;;20.58;73.80;100069.41;6322301;28;20123;-82
2021/09/01 10:51:29;;;;;;;0.70;0.60;;;;;;;20.85;70.01;100058.63;6289293;28;20056;-86
2021/09/01 10:54:40;;;;;;;1.10;0.73;;;;;;;21.39;73.12;100071.53;6322747;28;20036;-86
2021/09/01 10:57:40;;;;;;;0.88;0.50;;;;;;;21.22;72.10;100068.03;6304468;28;20044;-87
2021/09/01 11:00:43;;;;;;;1.67;0.97;;;;;;;21.31;70.92;100074.16;6287847;28;20040;-87
2021/09/01 11:04:01;;;;;;;2.67;0.60;;;;;;;21.31;70.58;100071.50;6304237;28;20040;-85
2021/09/01 11:07:04;;;;;;;3.53;0.70;;;;;;;21.55;72.16;100068.09;6304470;28;20165;-81
2021/09/01 11:10:07;;;;;;;1.08;0.90;;;;;;;21.21;72.23;100068.16;6303719;28;20613;-80
2021/09/01 11:13:08;;;;;;;1.42;0.70;;;;;;;21.43;68.69;100067.59;6304007;28;20040;-84
2021/09/01 11:16:22;;;;;;;2.00;0.50;;;;;;;21.49;69.29;100072.25;6322051;28;20548;-79
2021/09/01 11:19:23;;;;;;;0.77;0.63;;;;;;;21.73;66.55;100078.59;6303980;28;20067;-83
2021/09/01 11:22:26;;;;;;;0.60;0.60;;;;;;;21.68;71.76;100076.44;6287379;28;20092;-85
2021/09/01 11:25:31;;;;;;;2.47;0.52;;;;;;;21.86;65.16;100072.78;6287654;28;20276;-80
2021/09/01 11:28:32;;;;;;;0.40;0.40;;;;;;;21.87;65.54;100077.09;6303526;28;20417;-83
2021/09/01 11:31:42;;;;;;;3.70;0.70;;;;;;;21.75;72.86;100073.13;6286907;28;20047;-82
2021/09/01 11:34:44;;;;;;;0.40;0.40;;;;;;;22.45;64.10;100075.22;6272133;28;20390;-83
2021/09/01 11:38:07;;;;;;;1.00;0.60;;;;;;;21.59;67.00;100080.06;6321091;28;20040;-82
2021/09/01 11:41:08;;;;;;;0.75;0.60;;;;;;;21.53;72.98;100070.91;6302831;28;20466;-82
2021/09/01 11:44:10;;;;;;;3.50;0.97;;;;;;;21.94;67.15;100064.78;6285922;28;20044;-82
2021/09/01 11:47:15;;;;;;;1.17;0.45;;;;;;;22.13;72.31;100066.28;6302981;28;20501;-83
2021/09/01 11:50:17;;;;;;;1.25;0.80;;;;;;;21.77;66.75;100057.84;6286685;28;20040;-84
2021/09/01 11:53:20;;;;;;;3.60;1.10;;;;;;;21.20;70.12;100058.56;6302859;28;20051;-82
2021/09/01 11:56:21;;;;;;;0.50;0.45;;;;;;;21.04;69.91;100054.88;6302697;28;20083;-81
2021/09/01 11:59:23;;;;;;;0.70;0.70;;;;;;;21.35;68.18;100062.22;6269672;28;20044;-86
2021/09/01 12:02:27;;;;;;;0.80;0.52;;;;;;;21.54;71.47;100050.53;6270329;28;20172;-86
2021/09/01 12:05:29;;;;;;;0.63;0.60;;;;;;;21.91;65.20;100049.22;6302887;28;20478;-85
2021/09/01 12:08:30;;;;;;;2.38;0.73;;;;;;;21.24;72.30;100058.06;6285970;28;20046;-81
2021/09/01 12:11:32;;;;;;;1.47;0.80;;;;;;;20.80;70.49;100060.94;6285839;28;20035;-82
2021/09/01 12:14:33;;;;;;;0.70;0.60;;;;;;;20.64;71.99;100066.16;6285635;28;20573;-86
2021/09/01 12:17:34;;;;;;;1.75;0.70;;;;;;;20.62;74.08;100060.19;6319611;28;20040;-86
2021/09/01 12:20:36;;;;;;;2.50;0.80;;;;;;;20.44;74.32;100055.75;6269228;28;20040;-88
2021/09/01 12:23:37;;;;;;;0.85;0.70;;;;;;;20.35;73.85;100056.72;6302297;28;20082;-89
2021/09/01 12:26:49;;;;;;;1.47;0.70;;;;;;;20.31;78.58;100050.06;6302254;28;20387;-85
2021/09/01 12:29:51;;;;;;;0.60;0.60;;;;;;;20.18;79.08;100058.44;6302075;28;20067;-82
2021/09/01 12:33:09;;;;;;;1.42;0.88;;;;;;;20.33;79.49;100056.84;6302289;28;20043;-82
2021/09/01 12:36:10;;;;;;;2.08;0.80;;;;;;;20.49;78.17;100061.44;6302042;28;20063;-82
2021/09/01 12:39:16;;;;;;;1.90;0.90;;;;;;;20.59;76.09;100061.34;6268705;28;20510;-82
2021/09/01 12:42:32;;;;;;;1.95;0.68;;;;;;;20.54;73.63;100059.13;6302018;28;20044;-81
2021/09/01 12:45:37;;;;;;;2.28;0.55;;;;;;;20.41;74.48;100053.44;6301874;28;20044;-82
2021/09/01 12:48:42;;;;;;;1.10;0.82;;;;;;;20.44;78.36;100057.56;6302354;28;20044;-83
2021/09/01 12:51:43;;;;;;;2.00;0.70;;;;;;;20.40;73.87;100057.06;6302724;28;20044;-87
2021/09/01 12:54:44;;;;;;;2.97;0.70;;;;;;;20.46;73.41;100064.38;6269178;28;20036;-84
2021/09/01 12:57:44;;;;;;;1.27;0.70;;;;;;;21.07;71.62;100056.38;6307381;28;20047;-87
2021/09/01 13:00:45;;;;;;;0.70;0.57;;;;;;;20.80;70.93;100052.97;6307476;28;20043;-89
2021/09/01 13:03:46;;;;;;;0.47;0.47;;;;;;;20.61;70.02;100056.72;6273943;28;20557;-88
2021/09/01 13:06:47;;;;;;;0.67;0.60;;;;;;;20.43;73.79;100056.75;6273647;28;20100;-87
2021/09/01 13:09:48;;;;;;;1.37;0.67;;;;;;;20.34;72.24;100062.97;6290293;28;20101;-88
2021/09/01 13:12:53;;;;;;;0.65;0.52;;;;;;;20.32;73.10;100055.22;6306778;28;20402;-84
2021/09/01 13:15:54;;;;;;;1.05;0.60;;;;;;;20.38;75.01;100058.19;6291174;28;20126;-82
2021/09/01 13:18:55;;;;;;;1.70;0.70;;;;;;;20.46;69.96;100050.31;6290129;28;20055;-83
2021/09/01 13:21:56;;;;;;;0.50;0.50;;;;;;;20.59;72.25;100053.41;6273499;28;20479;-83
2021/09/01 13:24:57;;;;;;;3.47;0.50;;;;;;;20.82;71.33;100047.53;6273012;28;20044;-82
2021/09/01 13:27:58;;;;;;;1.50;0.60;;;;;;;21.18;67.38;100056.06;6273008;28;20071;-83
2021/09/01 13:30:58;;;;;;;0.30;0.30;;;;;;;21.32;62.09;100059.94;6273228;28;20044;-89
2021/09/01 13:34:00;;;;;;;2.83;1.07;;;;;;;21.05;60.93;100067.16;6273536;28;20044;-88
2021/09/01 13:37:01;;;;;;;0.20;0.20;;;;;;;20.88;63.52;100060.97;6290308;28;20044;-89
2021/09/01 13:40:02;;;;;;;2.73;0.20;;;;;;;20.71;65.16;100056.56;6289538;28;20062;-88
2021/09/01 13:43:03;;;;;;;0.10;0.10;;;;;;;20.70;60.23;100065.53;6289664;28;20118;-86
2021/09/01 13:46:05;;;;;;;0.40;0.20;;;;;;;20.83;60.39;100067.72;6289766;28;20131;-88
2021/09/01 13:49:06;;;;;;;0.43;0.20;;;;;;;21.05;58.16;100066.34;6289650;28;20127;-84
2021/09/01 13:52:07;;;;;;;0.40;0.30;;;;;;;21.30;59.60;100065.38;6306224;28;20044;-86
2021/09/01 13:55:09;;;;;;;0.40;0.25;;;;;;;21.37;57.30;100070.88;6306827;28;20043;-86
2021/09/01 13:58:09;;;;;;;2.08;0.40;;;;;;;21.08;59.35;100077.44;6289902;28;20048;-80
2021/09/01 14:01:10;;;;;;;0.50;0.40;;;;;;;20.85;60.61;100074.53;6305608;28;20067;-83
2021/09/01 14:04:12;;;;;;;0.30;0.30;;;;;;;20.85;59.67;100079.00;6288895;28;20147;-84
2021/09/01 14:07:13;;;;;;;0.45;0.20;;;;;;;20.80;58.84;100089.28;6304937;28;20036;-85